< Typhoon 198015 1980 Season Typhoon 198017 >
Typhoon 198016 (SPERRY)
General InformationTrack Information on Google MapsDetailed Wind Information || NewsDisaster Info.ResourceGoogle EarthGE AnimationAtom FeedGeoJSON
Detalied Best Track (Time Zone = UTC)
Year Month Day Hour Lat. Long. Pressure (hPa) Wind (kt) Class Image Chart
1980 9 14 12 19.0 150.0 1004 0 2 -- Chart
1980 9 14 18 19.6 148.7 1000 0 2 -- Chart
1980 9 15 00 20.1 147.3 996 0 2 -- Chart
1980 9 15 06 20.6 146.0 994 40 3 -- Chart
1980 9 15 12 21.2 144.5 992 45 3 -- Chart
1980 9 15 18 21.8 142.6 992 45 3 -- Chart
1980 9 16 00 22.4 141.2 992 45 3 -- Chart
1980 9 16 06 22.9 139.8 992 45 3 -- Chart
1980 9 16 12 23.6 138.4 992 45 3 -- Chart
1980 9 16 18 24.7 137.1 990 50 4 -- Chart
1980 9 17 00 25.7 136.4 990 50 4 -- Chart
1980 9 17 06 27.0 136.0 990 55 4 -- Chart
1980 9 17 12 28.3 136.1 990 55 4 -- Chart
1980 9 17 18 29.4 136.6 990 55 4 -- Chart
1980 9 18 00 30.2 137.7 990 55 4 -- Chart
1980 9 18 06 30.8 138.6 990 60 4 -- Chart
1980 9 18 12 30.9 139.7 980 60 4 -- Chart
1980 9 18 18 31.0 141.0 975 60 4 -- Chart
1980 9 19 00 31.2 142.2 975 65 5 -- Chart
1980 9 19 06 31.0 143.3 975 65 5 -- Chart
1980 9 19 12 30.9 144.4 975 65 5 -- Chart
1980 9 19 18 30.8 145.5 980 60 4 -- Chart
1980 9 20 00 30.7 146.7 985 40 3 -- Chart
1980 9 20 06 30.6 147.2 985 40 3 -- Chart
1980 9 20 12 31.0 147.8 990 45 3 -- Chart
1980 9 20 18 31.5 148.4 994 45 3 -- Chart
1980 9 21 00 32.0 149.0 996 35 3 -- Chart
1980 9 21 06 32.3 149.3 998 35 3 -- Chart
1980 9 21 12 32.8 149.8 1000 0 2 -- Chart
1980 9 21 18 33.0 150.0 1002 0 2 -- Chart
1980 9 22 00 33.3 150.6 1004 0 2 -- Chart
1980 9 22 06 34.0 152.0 1008 0 2 -- Chart
1980 9 22 12 36.0 155.0 1010 0 2 -- Chart
1980 9 22 18 37.7 157.7 1012 0 2 -- Chart
1980 9 23 00 39.0 161.0 1012 0 2 -- Chart
1980 9 23 06 39.4 165.1 1012 0 2 -- Chart
1980 9 23 12 39.8 168.5 1012 0 2 -- Chart
1980 9 23 18 39.9 171.4 1012 0 6 -- Chart
1980 9 24 00 41.0 175.0 1012 0 6 -- Chart
1980 9 24 06 41.0 178.5 1012 0 6 -- Chart
Japan Meteorological Agency Best Track Data | Correction Date : 1992-10-21
< Typhoon 198015 1980 Season Typhoon 198017 >

Help